This is the latest recevied weather packets stored in our database for station/object K0CPM-2. If no packets are shown the sender has not sent any weather packets the latest 1 day(s).
| Time | Temp. | Humidity | Pressure | Rain* | Wind** | Luminosity | Snow |
|---|---|---|---|---|---|---|---|
| 1777996840 | 26.67° C | 65% | 1010.5 hPa | 0 mm | 1.79 m/s, 347° | - | - |
| 1777995949 | 26.67° C | 68% | 1010.7 hPa | 0 mm | 0.89 m/s, 179° | - | - |
| 1777995036 | 25.56° C | 68% | 1010.8 hPa | 0 mm | 1.79 m/s, 10° | - | - |
| 1777994135 | 26.11° C | 68% | 1010.7 hPa | 0 mm | 1.34 m/s, 352° | - | - |
| 1777993241 | 25.56° C | 69% | 1010.8 hPa | 0 mm | 1.34 m/s, 320° | - | - |
| 1777992337 | 25° C | 68% | 1010.7 hPa | 0 mm | 1.79 m/s, 333° | - | - |
| 1777991427 | 25° C | 71% | 1010.7 hPa | 0 mm | 1.79 m/s, 340° | - | - |
| 1777990526 | 25° C | 72% | 1010.7 hPa | 0 mm | 1.34 m/s, 186° | - | - |
| 1777989632 | 25° C | 72% | 1010.8 hPa | 0 mm | 1.34 m/s, 16° | - | - |
| 1777988724 | 25° C | 74% | 1010.7 hPa | 0 mm | 0.89 m/s, 358° | - | - |
| 1777987832 | 23.89° C | 77% | 1010.3 hPa | 0 mm | 0 m/s | - | - |
| 1777986917 | 22.78° C | 79% | 1010.2 hPa | 0 mm | 0.45 m/s, 109° | - | - |
| 1777986012 | 22.22° C | 81% | 1010.3 hPa | 0 mm | 0.45 m/s, 131° | - | - |
| 1777985110 | 21.67° C | 82% | 1010.2 hPa | 0 mm | 0.45 m/s, 124° | - | - |
| 1777984207 | 21.11° C | 83% | 1009.9 hPa | 0 mm | 0.89 m/s, 16° | - | - |
| 1777983308 | 20.56° C | 85% | 1009.8 hPa | 0 mm | 0.45 m/s, 113° | - | - |
| 1777982463 | 20° C | 87% | 1009.7 hPa | 0 mm | 0.89 m/s, 105° | - | - |
| 1777981557 | 19.44° C | 89% | 1009.8 hPa | 0 mm | 0.45 m/s, 89° | - | - |
| 1777980658 | 18.33° C | 91% | 1009.9 hPa | 0 mm | 0 m/s | - | - |
| 1777979755 | 18.33° C | 90% | 1009.7 hPa | 0 mm | 0 m/s | - | - |
| 1777978852 | 18.33° C | 90% | 1009.8 hPa | 0 mm | 0 m/s | - | - |
| 1777977951 | 18.33° C | 90% | 1009.7 hPa | 0 mm | 0 m/s | - | - |
* Rain latest hour (hover to see other rain measurements)
** Current wind speed in m/s (hover to see current wind gust speed)